createdAt,value
2018-05-04T06:15:21.956Z,3.27
2018-05-04T06:17:47.606Z,3.00
2018-05-04T06:20:13.190Z,3.57
2018-05-04T06:22:38.960Z,3.67
2018-05-04T06:25:04.556Z,3.03
2018-05-04T06:27:30.088Z,3.90
2018-05-04T06:29:56.173Z,3.63
2018-05-04T16:34:04.928Z,4.13
2018-05-04T16:36:30.669Z,4.23
2018-05-04T16:38:56.236Z,4.23
2018-05-04T16:41:21.874Z,5.20
2018-05-04T16:43:48.058Z,4.10
2018-05-04T16:46:32.222Z,4.43
2018-05-04T16:49:16.748Z,4.17
2018-05-04T16:51:42.302Z,4.43
2018-05-04T16:54:07.947Z,4.17
2018-05-04T16:56:33.933Z,4.20
2018-05-04T16:58:59.481Z,5.03
2018-05-04T17:01:25.201Z,4.80
2018-05-04T17:03:50.850Z,5.00
2018-05-04T17:06:16.462Z,4.17
2018-05-04T17:08:42.417Z,5.10
2018-05-04T17:11:07.934Z,4.57
2018-05-04T17:13:33.750Z,4.67
2018-05-04T17:15:59.535Z,4.50
2018-05-04T17:18:25.134Z,4.50
2018-05-04T17:20:50.771Z,3.90
2018-05-04T17:23:16.567Z,4.40
2018-05-04T17:25:42.236Z,4.40
2018-05-04T17:28:07.812Z,3.97
2018-05-04T17:30:33.596Z,4.47
2018-05-04T17:32:59.351Z,4.20
2018-05-04T17:35:24.956Z,4.60
2018-05-04T17:37:50.737Z,4.73
2018-05-04T17:40:16.424Z,4.93
2018-05-04T17:42:41.941Z,4.47
2018-05-04T17:45:07.991Z,4.13
2018-05-04T17:47:33.684Z,4.83
2018-05-04T17:49:59.186Z,3.97
2018-05-04T17:52:25.012Z,4.00
2018-05-04T17:54:50.738Z,4.70
2018-05-04T17:57:16.306Z,3.97
2018-05-04T17:59:42.207Z,4.55
2018-05-04T18:02:07.773Z,4.50
2018-05-04T18:04:33.391Z,3.70
2018-05-04T18:06:59.222Z,3.57
2018-05-04T18:09:24.786Z,3.73
2018-05-04T18:11:50.413Z,4.93
2018-05-04T18:14:16.226Z,3.80
2018-05-04T18:16:41.793Z,4.03
2018-05-04T18:19:07.512Z,3.50
2018-05-04T18:21:33.212Z,3.70
2018-05-04T18:23:58.785Z,4.40
2018-05-04T18:26:24.411Z,4.07
2018-05-04T18:28:50.259Z,3.93
2018-05-04T18:31:15.903Z,4.70
2018-05-04T18:33:41.444Z,4.30
2018-05-04T18:36:07.230Z,4.10
2018-05-04T18:38:32.789Z,3.97
2018-05-04T18:40:58.349Z,3.83
2018-05-04T18:43:24.190Z,4.67
2018-05-04T18:45:50.051Z,4.97
2018-05-04T18:48:15.623Z,4.80
2018-05-04T18:50:41.340Z,4.20
2018-05-04T18:53:06.978Z,4.85
2018-05-04T18:55:32.547Z,5.65
2018-05-04T18:57:58.344Z,4.50
2018-05-04T19:00:24.127Z,4.83
2018-05-04T19:03:08.433Z,4.23
2018-05-04T19:05:34.356Z,4.50
2018-05-04T19:07:59.971Z,4.03
2018-05-04T19:10:25.704Z,4.00
2018-05-04T19:12:51.526Z,4.03
2018-05-04T19:15:17.101Z,4.60
2018-05-04T19:17:42.725Z,4.23
2018-05-04T19:20:08.601Z,5.28
2018-05-04T19:22:34.181Z,4.13
2018-05-04T19:24:59.733Z,4.10
2018-05-04T19:27:25.445Z,4.73
2018-05-04T19:29:51.003Z,4.40
2018-05-04T19:32:16.563Z,3.67
2018-05-04T19:34:42.431Z,3.67
2018-05-04T19:37:07.898Z,4.23
2018-05-04T19:39:33.681Z,4.03
2018-05-04T19:41:59.494Z,3.87
2018-05-04T19:44:25.069Z,3.97
2018-05-04T19:46:50.726Z,4.63
2018-05-04T19:49:16.476Z,4.50
2018-05-04T19:51:42.057Z,4.10
2018-05-04T19:54:07.931Z,4.17
2018-05-04T19:56:33.741Z,3.80
2018-05-04T19:58:59.331Z,3.70
2018-05-04T20:01:25.124Z,4.00
2018-05-04T20:03:50.886Z,4.13
2018-05-04T20:06:16.535Z,4.30
2018-05-04T20:08:42.091Z,3.67
2018-05-04T20:11:07.929Z,4.00
2018-05-04T20:13:33.481Z,3.97
2018-05-04T20:15:59.040Z,4.07
2018-05-04T20:18:25.226Z,4.20
2018-05-04T20:20:51.070Z,3.97
2018-05-04T20:23:16.611Z,3.97
2018-05-04T20:25:42.354Z,4.10
2018-05-04T20:28:07.975Z,4.55
2018-05-04T20:30:33.593Z,4.40
2018-05-04T20:32:59.320Z,3.90
2018-05-04T20:35:25.456Z,4.47
2018-05-04T20:37:51.015Z,4.22
2018-05-04T20:40:16.996Z,3.73
2018-05-04T20:42:43.200Z,4.20
2018-05-04T20:45:08.789Z,3.80
2018-05-04T20:47:34.415Z,3.80
2018-05-04T20:50:00.844Z,3.53
2018-05-04T20:52:26.418Z,3.83
2018-05-04T20:54:51.978Z,3.60
2018-05-04T20:57:18.327Z,3.53
2018-05-04T20:59:43.898Z,3.47
2018-05-04T21:02:09.528Z,3.73
2018-05-04T21:04:35.618Z,3.87
2018-05-04T21:07:01.636Z,3.90
2018-05-04T21:09:27.262Z,3.53
2018-05-04T21:11:54.923Z,3.60
2018-05-04T21:14:20.476Z,3.87
2018-05-04T21:16:46.109Z,3.60
2018-05-04T21:19:12.069Z,3.80
2018-05-04T21:21:38.170Z,3.80
2018-05-04T21:24:03.734Z,3.47
2018-05-04T21:26:29.809Z,3.37
2018-05-04T21:28:55.372Z,3.63
2018-05-04T21:31:21.013Z,3.77
2018-05-04T21:33:47.227Z,3.80
2018-05-04T21:36:12.809Z,3.30
2018-05-04T21:38:38.372Z,3.40
2018-05-04T21:41:04.528Z,3.23
2018-05-04T21:43:30.155Z,3.70
2018-05-04T21:45:55.740Z,3.43
2018-05-04T21:48:21.954Z,4.03
2018-05-04T21:50:47.985Z,4.07
2018-05-04T21:53:13.608Z,3.70
2018-05-04T21:55:39.670Z,3.70
2018-05-04T21:58:05.243Z,3.10
2018-05-04T22:00:30.809Z,3.30
2018-05-04T22:02:56.613Z,3.53
2018-05-04T22:05:22.172Z,3.40
2018-05-04T22:07:47.731Z,3.20
2018-05-04T22:10:13.425Z,3.40
2018-05-04T22:12:39.052Z,3.97
2018-05-04T22:15:04.815Z,3.93
2018-05-04T22:17:30.376Z,4.05
2018-05-04T22:19:56.144Z,2.93
2018-05-04T22:22:21.901Z,3.50
2018-05-04T22:24:47.501Z,4.17
2018-05-04T22:27:13.269Z,4.57
2018-05-04T22:29:39.037Z,3.30
2018-05-04T22:32:04.655Z,3.40
2018-05-04T22:34:30.243Z,4.07
2018-05-04T22:36:56.097Z,3.50
2018-05-04T22:39:21.685Z,3.80
2018-05-04T22:41:47.313Z,3.40
2018-05-04T22:44:13.113Z,3.30
2018-05-04T22:46:38.736Z,3.77
2018-05-04T22:49:04.304Z,4.30
2018-05-04T22:51:30.093Z,4.40
2018-05-04T22:53:55.652Z,3.93
2018-05-04T22:56:21.507Z,3.60
2018-05-04T22:58:47.345Z,4.28
2018-05-04T23:01:12.913Z,3.97
2018-05-04T23:03:38.488Z,3.90
2018-05-04T23:06:04.635Z,3.85
2018-05-04T23:08:30.202Z,3.75
2018-05-04T23:10:55.824Z,3.90
2018-05-04T23:13:21.603Z,3.60
2018-05-04T23:15:47.233Z,3.83
2018-05-04T23:18:12.866Z,3.30
2018-05-04T23:20:38.614Z,3.27
2018-05-04T23:23:04.179Z,3.57
2018-05-04T23:25:29.890Z,3.27
2018-05-04T23:27:55.656Z,3.30
2018-05-04T23:30:21.293Z,3.30
2018-05-04T23:32:46.856Z,3.13
2018-05-04T23:35:12.679Z,2.80
2018-05-04T23:37:38.241Z,3.30
2018-05-04T23:40:03.888Z,3.40
2018-05-04T23:42:29.655Z,3.17
2018-05-04T23:44:55.277Z,3.17
2018-05-04T23:47:20.849Z,2.90
2018-05-04T23:49:46.640Z,3.30
2018-05-04T23:52:12.434Z,3.23
2018-05-04T23:54:38.003Z,3.10
2018-05-04T23:57:03.894Z,3.50
2018-05-04T23:59:29.445Z,3.37
